Terminal Aerodrome Forecast
Issued by NWS Grand Forks, ND

Home | Current Version | Previous Version | Graphics & Text | Print | Product List | Glossary On
Versions: 1 2 3 4 5 6 7 8 9 10 11 12 13 14 15 16 17 18 19
195
FTUS43 KFGF 240520
TAFGFK
TAF
KGFK 240520Z 2406/2506 12013KT P6SM OVC100
      TEMPO 2406/2408 -RA OVC015
     FM240900 12013KT P6SM OVC010
     FM241600 14016KT P6SM OVC015
     FM241900 15016KT P6SM OVC035=

USA.gov is the U.S. government's official web portal to all federal, state and local government web resources and services.